Time;durP1;ratioP1;P1;durP2;ratioP2;P2;SDS_P1;SDS_P2;PMS_P1;PMS_P2;Temp;Humidity;BMP_temperature;BMP_pressure;BME280_temperature;BME280_humidity;BME280_pressure;Samples;Min_cycle;Max_cycle;Signal;HPM_P1;HPM_P2
2022/12/17 13:06:47;;;;;;;39.72;19.85;;;;;;;11.47;85.90;99774.06;3129516;28;20045;-74
2022/12/17 13:08:23;;;;;;;44.15;19.08;;;;;;;11.46;85.97;99749.75;3143632;28;20048;-69
2022/12/17 13:09:57;;;;;;;36.45;19.83;;;;;;;11.58;85.90;99761.34;3143578;28;20319;-70
2022/12/17 13:11:36;;;;;;;35.63;18.45;;;;;;;11.64;85.89;99760.19;3145626;28;20110;-71
2022/12/17 13:13:16;;;;;;;35.30;18.90;;;;;;;11.68;85.65;99756.50;3143625;28;20044;-72
2022/12/17 13:14:56;;;;;;;35.08;18.52;;;;;;;11.72;85.68;99753.66;3145897;28;20865;-71
2022/12/17 13:16:38;;;;;;;32.75;18.08;;;;;;;11.74;85.42;99745.75;3146342;28;20489;-72
2022/12/17 13:18:22;;;;;;;30.85;18.17;;;;;;;11.79;85.34;99755.03;3144376;28;20106;-71
2022/12/17 13:20:03;;;;;;;30.17;18.10;;;;;;;11.81;85.13;99760.19;3146060;28;20052;-70
2022/12/17 13:21:35;;;;;;;33.40;19.05;;;;;;;11.73;85.20;99742.28;3145473;28;20110;-69
2022/12/17 13:23:17;;;;;;;39.97;19.67;;;;;;;11.82;84.89;99756.66;3145813;28;20118;-71
2022/12/17 13:24:50;;;;;;;39.78;19.45;;;;;;;11.90;84.81;99775.41;3143954;28;20200;-72
2022/12/17 13:26:29;;;;;;;39.10;21.73;;;;;;;11.61;84.71;99729.88;3133538;28;20060;-76
2022/12/17 13:28:04;;;;;;;35.95;21.27;;;;;;;11.45;84.80;99692.47;3137903;28;20049;-75
2022/12/17 13:29:37;;;;;;;36.33;19.05;;;;;;;11.97;84.69;99778.53;3146425;28;20486;-79
2022/12/17 13:31:20;;;;;;;36.47;18.45;;;;;;;11.53;84.75;99706.78;3146404;28;20044;-75
2022/12/17 13:33:04;;;;;;;82.88;43.78;;;;;;;11.93;84.75;99758.75;3147032;28;20351;-82
2022/12/17 13:34:51;;;;;;;106.22;54.83;;;;;;;11.97;84.43;99766.31;3146315;28;20048;-78
2022/12/17 13:36:30;;;;;;;49.80;26.60;;;;;;;11.69;84.53;99726.91;3144885;28;20056;-76
2022/12/17 13:38:10;;;;;;;78.07;42.47;;;;;;;12.07;84.76;99795.44;3144791;28;20548;-75
2022/12/17 13:39:50;;;;;;;44.05;23.30;;;;;;;12.09;84.30;99785.72;3145587;28;20486;-76
2022/12/17 13:41:29;;;;;;;34.80;19.00;;;;;;;12.00;84.26;99784.44;3146145;28;20040;-77
2022/12/17 13:43:01;;;;;;;34.63;17.70;;;;;;;11.64;84.23;99742.78;3142839;28;20049;-75
2022/12/17 13:44:40;;;;;;;41.25;19.25;;;;;;;12.13;84.14;99809.94;3146126;28;20563;-78
2022/12/17 13:46:21;;;;;;;122.05;69.05;;;;;;;12.14;84.08;99812.44;3143211;28;20051;-76
2022/12/17 13:47:54;;;;;;;40.83;21.90;;;;;;;12.10;84.18;99797.00;3143680;28;20056;-79
2022/12/17 13:49:28;;;;;;;34.80;19.92;;;;;;;12.05;84.34;99790.28;3145553;28;20647;-75
2022/12/17 13:51:03;;;;;;;35.38;19.95;;;;;;;11.77;84.41;99745.59;3142486;28;20127;-75
2022/12/17 13:52:35;;;;;;;43.03;18.75;;;;;;;12.09;84.10;99793.56;3146370;28;20056;-76
2022/12/17 13:54:16;;;;;;;38.33;20.67;;;;;;;12.14;84.09;99793.34;3146048;28;20044;-79
2022/12/17 13:55:52;;;;;;;36.38;18.58;;;;;;;12.10;84.10;99784.81;3148308;28;20044;-85
2022/12/17 13:57:25;;;;;;;34.00;17.90;;;;;;;12.29;83.87;99816.88;3146666;28;20036;-82
2022/12/17 13:59:04;;;;;;;37.75;19.60;;;;;;;11.83;83.77;99748.75;3147375;28;20052;-88
2022/12/17 14:00:36;;;;;;;44.58;21.50;;;;;;;12.29;83.69;99827.31;3148614;28;20097;-81
2022/12/17 14:02:24;;;;;;;51.78;21.00;;;;;;;12.21;83.64;99812.97;3145695;28;20040;-74
2022/12/17 14:03:58;;;;;;;49.08;23.38;;;;;;;12.29;83.45;99831.69;3145834;28;20107;-76
2022/12/17 14:05:36;;;;;;;50.25;22.30;;;;;;;12.27;83.50;99828.31;3146070;28;20114;-77
2022/12/17 14:07:08;;;;;;;46.28;22.52;;;;;;;12.26;83.44;99829.25;3145995;28;20584;-77
2022/12/17 14:08:39;;;;;;;46.92;22.70;;;;;;;12.26;83.45;99837.91;3145291;28;20129;-78
2022/12/17 14:10:16;;;;;;;44.33;21.65;;;;;;;11.93;83.51;99783.06;3144491;28;20854;-74
2022/12/17 14:13:38;;;;;;;59.25;24.38;;;;;;;12.03;83.46;99804.31;3144433;28;20103;-78
2022/12/17 14:15:24;;;;;;;45.63;22.35;;;;;;;12.23;83.29;99832.84;3145134;28;20045;-75
2022/12/17 14:16:56;;;;;;;51.72;22.38;;;;;;;12.20;83.41;99837.41;3143093;28;20079;-78
2022/12/17 14:18:29;;;;;;;55.08;25.73;;;;;;;12.09;83.13;99824.03;3144405;28;20106;-73
2022/12/17 14:20:05;;;;;;;56.13;27.38;;;;;;;12.16;83.31;99848.94;3144475;28;20122;-73
2022/12/17 14:21:37;;;;;;;55.17;27.65;;;;;;;11.84;83.46;99793.94;3145230;28;20448;-74
2022/12/17 14:23:17;;;;;;;64.45;30.33;;;;;;;12.10;83.19;99842.25;3145126;28;20040;-75
2022/12/17 14:24:48;;;;;;;58.60;29.08;;;;;;;11.91;83.01;99820.59;3145690;28;20087;-74
2022/12/17 14:26:21;;;;;;;64.88;31.00;;;;;;;12.04;83.08;99856.47;3145330;28;20181;-75
2022/12/17 14:27:55;;;;;;;68.70;31.85;;;;;;;12.02;82.91;99852.22;3145712;28;20055;-67
2022/12/17 14:29:29;;;;;;;69.38;31.45;;;;;;;11.99;82.90;99850.63;3145671;28;20409;-66
2022/12/17 14:31:06;;;;;;;67.05;30.45;;;;;;;11.98;83.18;99846.31;3145171;28;20151;-66
2022/12/17 14:32:38;;;;;;;64.82;29.42;;;;;;;11.96;82.97;99837.72;3145234;28;20048;-68
2022/12/17 14:34:11;;;;;;;61.85;29.65;;;;;;;11.95;83.08;99827.34;3145161;28;20052;-67
2022/12/17 14:35:51;;;;;;;83.13;30.42;;;;;;;11.94;83.00;99825.66;3144694;28;20064;-69
2022/12/17 14:37:25;;;;;;;72.88;33.10;;;;;;;11.89;82.94;99823.31;3145280;28;20067;-67
2022/12/17 14:38:59;;;;;;;66.43;29.77;;;;;;;11.10;82.63;99703.72;3145130;28;20742;-67
2022/12/17 14:40:32;;;;;;;71.60;32.85;;;;;;;11.38;82.66;99757.94;3145268;28;20131;-67
2022/12/17 14:42:25;;;;;;;67.78;31.77;;;;;;;11.88;82.77;99839.88;3145316;28;20048;-68
2022/12/17 14:43:59;;;;;;;77.95;31.05;;;;;;;11.71;82.79;99827.63;3134323;28;20088;-69
2022/12/17 14:45:30;;;;;;;80.97;35.13;;;;;;;11.82;82.73;99848.81;3142412;28;20053;-68
2022/12/17 14:47:18;;;;;;;68.70;27.52;;;;;;;11.78;82.52;99839.44;3144978;28;20048;-68
2022/12/17 14:49:04;;;;;;;75.03;34.75;;;;;;;11.72;82.68;99844.97;3145621;28;20182;-68
2022/12/17 14:50:38;;;;;;;54.28;27.08;;;;;;;11.67;83.06;99851.34;3145309;28;20121;-68
2022/12/17 14:52:13;;;;;;;51.03;25.40;;;;;;;11.05;82.92;99752.59;3144128;28;20119;-68
2022/12/17 14:53:45;;;;;;;98.15;47.47;;;;;;;11.66;82.76;99860.94;3143714;28;20443;-68
2022/12/17 14:55:29;;;;;;;70.82;34.63;;;;;;;11.65;82.60;99866.19;3144825;28;20496;-68
2022/12/17 14:57:06;;;;;;;70.55;35.28;;;;;;;11.61;82.93;99871.56;3145021;28;20485;-68
2022/12/17 14:58:45;;;;;;;61.38;29.55;;;;;;;11.51;82.91;99862.50;3145347;28;20105;-67
2022/12/17 15:00:17;;;;;;;45.05;24.70;;;;;;;11.54;83.21;99878.00;3144570;28;20071;-67
2022/12/17 15:01:49;;;;;;;52.85;28.02;;;;;;;11.47;83.13;99876.59;3145088;28;20527;-67
2022/12/17 15:03:24;;;;;;;55.47;28.23;;;;;;;11.52;83.17;99889.44;3144881;28;20504;-67
2022/12/17 15:04:57;;;;;;;53.17;25.65;;;;;;;11.46;83.30;99882.75;3145336;28;20509;-67
2022/12/17 15:06:31;;;;;;;53.17;24.17;;;;;;;11.46;83.24;99889.72;3145260;28;20044;-68
2022/12/17 15:08:04;;;;;;;57.22;27.25;;;;;;;11.41;83.18;99894.31;3144855;28;20090;-67
2022/12/17 15:09:36;;;;;;;;;;;;;;;11.32;83.53;99906.84;3145490;28;20052;-68
2022/12/17 15:11:10;;;;;;;46.75;23.17;;;;;;;11.30;83.75;99907.88;3145450;28;19920;-67
2022/12/17 15:12:43;;;;;;;48.80;23.10;;;;;;;11.31;83.81;99910.38;3144650;28;20398;-68
2022/12/17 15:14:14;;;;;;;46.13;24.15;;;;;;;11.31;83.72;99910.38;3144708;28;20055;-68
2022/12/17 15:15:46;;;;;;;52.28;24.55;;;;;;;11.31;84.05;99909.53;3145001;28;20098;-68
2022/12/17 15:17:18;;;;;;;56.80;26.33;;;;;;;11.36;83.97;99923.22;3144946;28;20045;-67
2022/12/17 15:18:50;;;;;;;58.25;27.70;;;;;;;11.30;83.93;99907.88;3145110;28;20052;-68
2022/12/17 15:20:22;;;;;;;51.67;25.77;;;;;;;11.38;83.95;99921.38;3144892;28;20078;-67
2022/12/17 15:21:55;;;;;;;55.67;27.70;;;;;;;11.25;83.81;99910.66;3144669;28;20044;-68
2022/12/17 15:23:27;;;;;;;66.13;30.52;;;;;;;11.32;84.04;99929.47;3145168;28;20083;-68
2022/12/17 15:24:59;;;;;;;78.10;37.25;;;;;;;11.35;84.18;99951.03;3144936;28;20056;-68
2022/12/17 15:26:31;;;;;;;63.60;31.88;;;;;;;11.35;83.83;99961.47;3144511;28;20068;-68
2022/12/17 15:28:03;;;;;;;63.65;30.58;;;;;;;11.36;84.20;99967.53;3144946;28;20048;-68
2022/12/17 15:29:34;;;;;;;60.55;31.55;;;;;;;11.37;84.01;99971.84;3144945;28;20495;-68
2022/12/17 15:31:06;;;;;;;66.35;31.48;;;;;;;11.33;84.13;99975.50;3144463;28;20570;-68
2022/12/17 15:32:38;;;;;;;64.68;32.60;;;;;;;11.36;84.01;99989.25;3144423;28;20605;-68
2022/12/17 15:34:11;;;;;;;69.15;35.15;;;;;;;11.33;84.43;99992.00;3144646;28;20086;-67
2022/12/17 15:35:43;;;;;;;72.57;34.60;;;;;;;11.35;84.48;99995.34;3134495;28;20554;-68
2022/12/17 15:37:17;;;;;;;80.35;34.67;;;;;;;11.32;84.27;99995.50;3144780;28;20048;-68
2022/12/17 15:38:49;;;;;;;72.60;34.53;;;;;;;11.18;84.25;99991.81;3144900;28;20056;-68
2022/12/17 15:40:21;;;;;;;70.43;34.70;;;;;;;11.36;84.45;100028.34;3144366;28;20092;-68
2022/12/17 15:43:42;;;;;;;97.93;42.63;;;;;;;11.37;84.97;100037.00;3144627;28;20064;-68
2022/12/17 15:45:14;;;;;;;96.32;42.50;;;;;;;11.38;84.87;100042.16;3144681;28;20499;-68
2022/12/17 15:46:46;;;;;;;73.65;36.08;;;;;;;11.41;85.11;100032.50;3152780;28;20074;-67
2022/12/17 15:48:20;;;;;;;73.53;35.80;;;;;;;11.42;85.37;100027.25;3147040;28;20113;-68
2022/12/17 15:49:52;;;;;;;68.28;32.72;;;;;;;11.37;85.30;100013.56;3144310;28;20405;-67
2022/12/17 15:51:23;;;;;;;65.05;31.88;;;;;;;11.39;85.72;100009.97;3144630;28;20048;-68
2022/12/17 15:52:57;;;;;;;68.57;32.80;;;;;;;11.09;85.46;99936.59;3144916;28;20044;-67
2022/12/17 15:54:29;;;;;;;77.60;36.20;;;;;;;11.46;85.91;99981.00;3144682;28;20070;-67
2022/12/17 15:56:01;;;;;;;103.60;43.47;;;;;;;11.48;86.55;99956.53;3144629;28;20078;-67
2022/12/17 15:57:33;;;;;;;90.22;39.67;;;;;;;11.45;86.63;99907.13;3144624;28;20052;-67
2022/12/17 15:59:05;;;;;;;76.68;31.88;;;;;;;11.42;87.50;99868.16;3144614;28;20094;-67
2022/12/17 16:00:37;;;;;;;63.58;32.08;;;;;;;11.43;88.29;99856.81;3144697;28;20094;-68
2022/12/17 16:02:10;;;;;;;63.75;30.83;;;;;;;11.27;88.78;99840.19;3144321;28;20040;-67
2022/12/17 16:03:42;;;;;;;63.38;32.58;;;;;;;11.35;88.85;99879.78;3144137;28;20048;-68
2022/12/17 16:05:14;;;;;;;64.78;33.33;;;;;;;11.41;89.05;99889.09;3144535;28;20075;-68
2022/12/17 16:06:46;;;;;;;71.97;35.17;;;;;;;11.38;89.19;99869.22;3144825;28;20052;-68
2022/12/17 16:08:19;;;;;;;54.25;29.77;;;;;;;11.43;89.48;99859.41;3144226;28;20094;-68
2022/12/17 16:09:51;;;;;;;60.42;28.63;;;;;;;11.30;90.08;99832.25;3144317;28;20052;-68
2022/12/17 16:11:23;;;;;;;52.65;27.60;;;;;;;11.40;90.60;99851.75;3144820;28;20075;-68
2022/12/17 16:12:55;;;;;;;58.92;27.13;;;;;;;11.36;90.53;99864.09;3144048;28;20040;-67
2022/12/17 16:14:27;;;;;;;62.28;30.48;;;;;;;11.41;90.72;99895.16;3144445;28;20048;-68
2022/12/17 16:15:59;;;;;;;59.90;27.33;;;;;;;11.39;90.45;99916.09;3144268;28;20079;-67
2022/12/17 16:17:31;;;;;;;53.20;27.75;;;;;;;11.40;90.56;99927.38;3143978;28;20466;-68
2022/12/17 16:19:03;;;;;;;64.72;30.42;;;;;;;11.41;90.48;99931.66;3144646;28;20055;-68
2022/12/17 16:20:34;;;;;;;67.68;31.75;;;;;;;11.43;90.76;99924.59;3144664;28;20132;-68
2022/12/17 16:22:06;;;;;;;61.40;31.05;;;;;;;11.45;90.81;99917.56;3144443;28;20297;-67
2022/12/17 16:23:40;;;;;;;64.35;30.92;;;;;;;11.49;90.93;99906.06;3144381;28;20048;-67
2022/12/17 16:25:12;;;;;;;60.53;31.02;;;;;;;11.48;91.00;99904.38;3144071;28;20048;-68
2022/12/17 16:26:44;;;;;;;68.40;35.90;;;;;;;11.51;91.10;99911.22;3144391;28;20057;-68
2022/12/17 16:28:16;;;;;;;100.97;49.33;;;;;;;11.53;91.03;99910.22;3143757;28;20048;-67
2022/12/17 16:29:48;;;;;;;111.65;57.17;;;;;;;11.53;91.36;99918.03;3144290;28;20045;-68
2022/12/17 16:31:19;;;;;;;106.80;56.92;;;;;;;11.55;91.20;99925.78;3143924;28;20076;-67
2022/12/17 16:32:51;;;;;;;78.32;42.25;;;;;;;11.42;91.00;99904.69;3143852;28;20044;-66
2022/12/17 16:34:23;;;;;;;77.60;38.70;;;;;;;11.50;91.27;99920.78;3144144;28;20691;-67
2022/12/17 16:35:55;;;;;;;73.40;36.75;;;;;;;11.55;91.31;99915.38;3144133;28;20056;-67
2022/12/17 16:37:27;;;;;;;77.15;39.60;;;;;;;11.57;91.33;99927.41;3143794;28;20502;-66
2022/12/17 16:39:00;;;;;;;100.10;49.28;;;;;;;11.56;91.65;99917.88;3144483;28;20048;-67
2022/12/17 16:40:32;;;;;;;92.53;43.50;;;;;;;11.35;91.67;99874.56;3144223;28;20505;-67
2022/12/17 16:42:04;;;;;;;85.30;39.42;;;;;;;11.55;91.60;99907.53;3143769;28;20111;-67
2022/12/17 16:43:36;;;;;;;65.13;35.30;;;;;;;11.52;91.78;99898.09;3144172;28;20061;-67
2022/12/17 16:45:09;;;;;;;79.68;38.53;;;;;;;11.51;91.44;99893.81;3144208;28;20480;-68
2022/12/17 16:46:42;;;;;;;75.97;36.75;;;;;;;11.48;91.76;99898.34;3153681;28;20098;-68
2022/12/17 16:48:14;;;;;;;82.60;37.40;;;;;;;11.45;91.43;99898.47;3150146;28;20170;-68
2022/12/17 16:49:46;;;;;;;89.53;40.63;;;;;;;11.41;91.57;99895.16;3146544;28;20476;-67
2022/12/17 16:51:20;;;;;;;69.03;33.67;;;;;;;11.38;91.56;99901.34;3146414;28;20556;-68
2022/12/17 16:52:52;;;;;;;73.30;35.55;;;;;;;11.38;91.85;99911.78;3146808;28;20125;-68
2022/12/17 16:54:27;;;;;;;66.65;34.95;;;;;;;11.44;91.79;99926.28;3146455;28;20049;-68
2022/12/17 16:55:59;;;;;;;73.10;33.10;;;;;;;11.39;92.01;99930.91;3146085;28;20102;-68
2022/12/17 16:57:30;;;;;;;71.70;34.35;;;;;;;11.31;92.00;99922.56;3144060;28;20114;-68
2022/12/17 16:59:04;;;;;;;82.63;36.08;;;;;;;11.38;92.47;99927.41;3146308;28;20044;-68
2022/12/17 17:00:36;;;;;;;;;;;;;;;11.26;92.41;99925.38;3146788;28;20139;-67
2022/12/17 17:02:13;;;;;;;81.97;39.05;;;;;;;11.25;93.01;99935.91;3146372;28;19924;-67
2022/12/17 17:03:45;;;;;;;83.82;38.50;;;;;;;11.22;93.41;99936.03;3146511;28;20048;-67
2022/12/17 17:05:16;;;;;;;92.45;40.30;;;;;;;11.19;93.54;99937.03;3146392;28;20122;-67
2022/12/17 17:06:50;;;;;;;97.75;43.58;;;;;;;11.16;93.58;99940.59;3146643;28;20499;-67
2022/12/17 17:08:22;;;;;;;95.63;45.95;;;;;;;11.15;94.06;99940.66;3146511;28;20056;-67
2022/12/17 17:09:56;;;;;;;104.60;45.88;;;;;;;11.13;94.12;99932.94;3146345;28;20414;-67
2022/12/17 17:11:28;;;;;;;105.47;47.92;;;;;;;11.19;93.95;99936.19;3146183;28;20100;-67
2022/12/17 17:13:00;;;;;;;101.05;46.90;;;;;;;11.12;93.99;99931.25;3146511;28;20458;-67
2022/12/17 17:14:32;;;;;;;100.55;47.92;;;;;;;11.15;94.12;99941.53;3146407;28;20048;-66
2022/12/17 17:16:03;;;;;;;99.30;44.80;;;;;;;10.44;93.95;99831.81;3146547;28;20055;-67
2022/12/17 17:17:35;;;;;;;91.63;42.25;;;;;;;11.01;94.02;99933.47;3146143;28;20059;-67
2022/12/17 17:19:07;;;;;;;95.78;41.72;;;;;;;11.05;94.13;99955.03;3146302;28;20098;-67
2022/12/17 17:20:39;;;;;;;91.40;42.65;;;;;;;10.84;94.18;99929.00;3146672;28;20517;-67
2022/12/17 17:22:11;;;;;;;83.75;40.00;;;;;;;10.89;94.29;99947.91;3145995;28;20070;-66
2022/12/17 17:23:43;;;;;;;89.40;39.50;;;;;;;10.86;94.41;99955.84;3145365;28;20056;-67
2022/12/17 17:25:16;;;;;;;85.75;39.13;;;;;;;10.84;94.33;99955.06;3145778;28;20044;-67
2022/12/17 17:26:49;;;;;;;87.97;38.78;;;;;;;10.87;94.39;99967.13;3146407;28;20110;-67
2022/12/17 17:28:20;;;;;;;83.70;38.20;;;;;;;10.90;94.10;99972.19;3145877;28;20052;-67
2022/12/17 17:29:52;;;;;;;86.85;39.80;;;;;;;10.89;94.15;99976.56;3146079;28;20075;-67
2022/12/17 17:31:24;;;;;;;84.38;38.58;;;;;;;10.95;93.97;99988.47;3146001;28;20497;-67
2022/12/17 17:32:56;;;;;;;98.85;41.88;;;;;;;10.96;93.92;99984.94;3146421;28;20040;-67
2022/12/17 17:34:28;;;;;;;73.53;37.28;;;;;;;10.98;93.84;99987.50;3146099;28;20056;-68
2022/12/17 17:36:04;;;;;;;85.78;40.85;;;;;;;10.99;93.43;99997.84;3146099;28;20048;-67
2022/12/17 17:37:36;;;;;;;96.65;43.78;;;;;;;10.98;93.31;99996.16;3146029;28;20076;-67
2022/12/17 17:39:08;;;;;;;89.80;40.17;;;;;;;11.00;93.25;99999.53;3146400;28;20566;-67
2022/12/17 17:40:41;;;;;;;90.13;40.53;;;;;;;11.00;93.47;99994.31;3143822;28;20106;-67
2022/12/17 17:42:13;;;;;;;86.40;41.30;;;;;;;11.00;93.04;99998.69;3146131;28;20599;-67
2022/12/17 17:43:45;;;;;;;92.70;41.08;;;;;;;11.00;93.13;99993.47;3146288;28;20052;-67
2022/12/17 17:45:17;;;;;;;89.95;41.30;;;;;;;10.61;93.16;99921.34;3146243;28;20054;-68
2022/12/17 17:46:48;;;;;;;95.82;43.75;;;;;;;11.00;92.73;99991.72;3154654;28;20048;-67
2022/12/17 17:48:20;;;;;;;88.40;41.08;;;;;;;10.94;92.98;99989.38;3147621;28;20087;-67
2022/12/17 17:49:52;;;;;;;87.10;40.70;;;;;;;10.98;92.59;99996.16;3145889;28;20513;-67
2022/12/17 17:51:25;;;;;;;87.35;41.53;;;;;;;10.98;92.86;100009.19;3146275;28;20094;-67
2022/12/17 17:52:57;;;;;;;;;;;;;;;10.88;92.53;99997.47;3146043;28;20388;-67
2022/12/17 17:54:29;;;;;;;77.63;37.17;;;;;;;10.89;92.85;99989.59;3146070;28;19932;-67
2022/12/17 17:56:13;;;;;;;83.28;39.38;;;;;;;10.89;92.79;99994.78;3145934;28;20503;-67
2022/12/17 17:57:45;;;;;;;;;;;;;;;10.80;92.60;100000.41;3146597;28;20056;-67
2022/12/17 17:59:18;;;;;;;87.07;38.15;;;;;;;10.80;93.04;100010.00;3145946;28;19925;-68
2022/12/17 18:00:49;;;;;;;80.78;37.17;;;;;;;10.77;92.65;100004.91;3145883;28;20088;-67
2022/12/17 18:02:21;;;;;;;84.00;37.90;;;;;;;10.82;92.78;100011.59;3145879;28;20048;-69
2022/12/17 18:03:56;;;;;;;95.10;46.50;;;;;;;10.77;92.45;100007.50;3145871;28;20045;-67
2022/12/17 18:05:27;;;;;;;138.55;60.05;;;;;;;10.78;92.26;100009.19;3145602;28;20145;-69
2022/12/17 18:06:59;;;;;;;98.72;44.58;;;;;;;10.81;92.26;100014.28;3145833;28;20105;-67
2022/12/17 18:08:31;;;;;;;103.28;44.75;;;;;;;10.83;92.06;100007.25;3145989;28;20161;-67
2022/12/17 18:10:04;;;;;;;97.75;44.15;;;;;;;10.83;92.30;99999.44;3145652;28;20041;-67
2022/12/17 18:11:39;;;;;;;112.63;49.20;;;;;;;10.84;91.97;99998.50;3145583;28;20052;-67
2022/12/17 18:14:59;;;;;;;100.10;46.50;;;;;;;10.45;91.84;99962.84;3145686;28;20048;-67
2022/12/17 18:16:33;;;;;;;106.72;49.95;;;;;;;10.79;92.21;100021.28;3145877;28;20071;-67
2022/12/17 18:18:05;;;;;;;100.38;47.78;;;;;;;10.69;91.82;100018.25;3145779;28;20071;-67
2022/12/17 18:19:37;;;;;;;105.38;50.45;;;;;;;10.62;91.98;100007.25;3145596;28;20049;-68
2022/12/17 18:21:11;;;;;;;117.45;51.42;;;;;;;10.68;91.71;100025.22;3145358;28;20048;-67
2022/12/17 18:22:45;;;;;;;111.05;50.45;;;;;;;10.65;91.99;100016.69;3145973;28;20053;-67
2022/12/17 18:24:18;;;;;;;102.00;49.85;;;;;;;10.64;91.69;100022.78;3145281;28;20118;-68
2022/12/17 18:25:50;;;;;;;129.73;60.97;;;;;;;10.55;91.70;100003.19;3145415;28;20438;-67
2022/12/17 18:27:23;;;;;;;152.57;71.72;;;;;;;10.58;91.53;100010.88;3145222;28;20052;-68
2022/12/17 18:28:57;;;;;;;114.03;54.17;;;;;;;10.52;91.38;100021.53;3145303;28;20056;-66
2022/12/17 18:30:29;;;;;;;107.30;49.38;;;;;;;10.50;91.34;100017.31;3145614;28;20052;-69
2022/12/17 18:32:00;;;;;;;99.95;47.50;;;;;;;10.53;91.19;100025.00;3145628;28;20507;-68
2022/12/17 18:33:31;;;;;;;117.20;48.83;;;;;;;10.51;91.48;100032.88;3145039;28;20041;-68
2022/12/17 18:35:03;;;;;;;97.50;46.70;;;;;;;10.52;91.43;100041.53;3145645;28;20052;-68
2022/12/17 18:36:38;;;;;;;97.28;47.13;;;;;;;9.86;91.00;99948.72;3145578;28;20180;-69
2022/12/17 18:38:10;;;;;;;157.73;67.65;;;;;;;10.33;91.35;100024.06;3145138;28;20047;-70
2022/12/17 18:39:42;;;;;;;151.18;68.35;;;;;;;10.43;91.11;100048.81;3145658;28;20048;-66
2022/12/17 18:43:24;;;;;;;107.78;51.13;;;;;;;10.38;91.08;100055.09;3145347;28;20053;-68
2022/12/17 18:44:56;;;;;;;109.82;52.05;;;;;;;10.06;91.16;100005.16;3145447;28;20052;-66
2022/12/17 18:46:28;;;;;;;109.25;50.58;;;;;;;10.38;91.14;100063.78;3150290;28;20402;-68
2022/12/17 18:48:00;;;;;;;105.70;48.10;;;;;;;10.40;91.32;100066.31;3150939;28;20052;-67
2022/12/17 18:49:31;;;;;;;100.13;46.25;;;;;;;10.35;91.38;100065.63;3145088;28;20048;-68
2022/12/17 18:51:05;;;;;;;100.05;46.10;;;;;;;10.28;91.25;100043.38;3145248;28;20052;-68
2022/12/17 18:52:37;;;;;;;88.63;43.28;;;;;;;10.01;91.09;100007.94;3145413;28;20825;-68
2022/12/17 18:54:16;;;;;;;94.03;42.92;;;;;;;10.41;91.27;100066.25;3144747;28;20060;-67
2022/12/17 18:55:48;;;;;;;112.13;51.78;;;;;;;10.39;91.21;100059.41;3145476;28;20064;-68
2022/12/17 18:57:20;;;;;;;105.25;50.22;;;;;;;9.59;91.39;99924.66;3145028;28;20611;-68
2022/12/17 18:58:53;;;;;;;186.80;93.47;;;;;;;10.38;91.59;100049.91;3144971;28;20109;-65
2022/12/17 19:00:25;;;;;;;160.90;82.32;;;;;;;10.36;92.07;100044.75;3145217;28;20064;-65
2022/12/17 19:01:59;;;;;;;107.07;51.00;;;;;;;10.34;92.20;100036.16;3144949;28;20623;-66
2022/12/17 19:03:31;;;;;;;92.72;44.30;;;;;;;10.35;92.37;100042.22;3145186;28;20052;-65
2022/12/17 19:05:03;;;;;;;90.63;43.40;;;;;;;10.02;92.00;99993.19;3145111;28;20059;-66
2022/12/17 19:06:37;;;;;;;93.70;45.10;;;;;;;10.25;92.08;100031.28;3145056;28;20048;-64
2022/12/17 19:08:09;;;;;;;95.53;42.05;;;;;;;10.38;92.32;100049.91;3143845;28;20046;-63
2022/12/17 19:09:41;;;;;;;91.50;42.22;;;;;;;10.38;92.34;100060.31;3144884;28;20558;-63
2022/12/17 19:11:14;;;;;;;99.05;44.80;;;;;;;10.37;92.23;100063.84;3144707;28;20048;-62
2022/12/17 19:12:46;;;;;;;94.07;41.83;;;;;;;10.34;92.44;100064.78;3145239;28;20501;-64
2022/12/17 19:14:21;;;;;;;89.55;40.75;;;;;;;10.32;92.46;100066.59;3143305;28;20052;-64
2022/12/17 19:15:53;;;;;;;90.80;41.72;;;;;;;10.32;92.40;100065.75;3145036;28;20075;-64
2022/12/17 19:17:25;;;;;;;85.07;41.92;;;;;;;10.29;92.53;100066.72;3141861;28;20048;-65
2022/12/17 19:19:00;;;;;;;89.78;41.75;;;;;;;10.29;92.66;100064.13;3144834;28;20080;-65
2022/12/17 19:20:32;;;;;;;78.60;38.40;;;;;;;10.28;93.00;100072.84;3144847;28;20091;-64
2022/12/17 19:22:04;;;;;;;80.20;39.38;;;;;;;10.29;92.95;100073.69;3144300;28;20509;-64
2022/12/17 19:23:36;;;;;;;82.70;38.40;;;;;;;10.27;92.74;100076.38;3133172;28;20049;-63
2022/12/17 19:25:10;;;;;;;79.90;37.63;;;;;;;10.28;92.69;100087.63;3139696;28;20044;-63
2022/12/17 19:26:42;;;;;;;;;;;;;;;10.18;92.94;100087.13;3145042;28;20041;-64
2022/12/17 19:28:14;;;;;;;88.75;39.15;;;;;;;10.18;93.34;100100.97;3144760;28;19920;-62
2022/12/17 19:29:47;;;;;;;85.88;39.10;;;;;;;10.22;93.48;100114.72;3144632;28;20048;-63
2022/12/17 19:31:21;;;;;;;93.75;37.85;;;;;;;10.22;93.17;100120.75;3144263;28;20157;-63
2022/12/17 19:32:53;;;;;;;75.72;37.38;;;;;;;10.21;93.18;100108.66;3136887;28;20049;-65
2022/12/17 19:34:25;;;;;;;86.95;38.78;;;;;;;10.20;93.41;100113.91;3131694;28;20135;-63
2022/12/17 19:36:01;;;;;;;82.32;39.25;;;;;;;10.21;93.32;100113.88;3131880;28;20511;-65
2022/12/17 19:37:35;;;;;;;85.88;39.22;;;;;;;10.24;93.41;100124.16;3134498;28;20067;-64
2022/12/17 19:39:08;;;;;;;90.75;40.88;;;;;;;10.27;93.10;100130.19;3132272;28;20052;-65
2022/12/17 19:40:40;;;;;;;96.47;42.50;;;;;;;10.25;92.99;100131.03;3141899;28;20048;-64
2022/12/17 19:42:23;;;;;;;83.25;38.28;;;;;;;10.11;93.60;100104.69;3144480;28;20048;-67
2022/12/17 19:43:57;;;;;;;92.13;41.47;;;;;;;10.26;93.21;100126.69;3140316;28;20036;-65
2022/12/17 19:45:31;;;;;;;96.15;41.17;;;;;;;10.27;93.19;100119.78;3144482;28;20052;-66
2022/12/17 19:47:03;;;;;;;86.20;40.08;;;;;;;10.26;93.45;100126.69;3145727;28;20156;-65
2022/12/17 19:48:36;;;;;;;94.75;43.03;;;;;;;10.23;93.29;100117.25;3144472;28;20048;-65
2022/12/17 19:50:08;;;;;;;;;;;;;;;10.17;93.41;100122.69;3145078;28;20044;-67
2022/12/17 19:51:42;;;;;;;88.97;40.47;;;;;;;9.68;93.76;100045.66;3144502;28;20363;-64
2022/12/17 19:53:14;;;;;;;103.18;42.15;;;;;;;10.20;93.61;100138.22;3143431;28;20441;-65
2022/12/17 19:54:46;;;;;;;119.75;54.33;;;;;;;10.22;93.43;100152.00;3143419;28;20048;-64
2022/12/17 19:56:19;;;;;;;99.05;43.70;;;;;;;10.21;93.57;100158.13;3142190;28;20052;-66
2022/12/17 19:57:51;;;;;;;;;;;;;;;10.13;93.65;100169.72;3142805;28;20053;-64
2022/12/17 19:59:23;;;;;;;95.93;43.17;;;;;;;10.12;94.03;100170.63;3142138;28;19924;-65
2022/12/17 20:00:56;;;;;;;112.68;47.50;;;;;;;10.14;93.97;100182.66;3142932;28;20056;-64
2022/12/17 20:02:28;;;;;;;97.15;44.50;;;;;;;10.14;94.38;100179.22;3142873;28;20445;-66
2022/12/17 20:04:00;;;;;;;103.28;45.95;;;;;;;10.15;94.17;100186.97;3143385;28;20114;-66
2022/12/17 20:05:32;;;;;;;99.45;43.58;;;;;;;10.06;94.54;100158.69;3142819;28;20048;-64
2022/12/17 20:07:04;;;;;;;106.00;48.78;;;;;;;10.19;94.16;100172.09;3143775;28;20055;-64
2022/12/17 20:08:36;;;;;;;113.57;51.28;;;;;;;10.20;94.46;100156.44;3137901;28;20079;-64
2022/12/17 20:10:08;;;;;;;112.50;49.30;;;;;;;10.23;94.68;100140.69;3136811;28;20567;-64
2022/12/17 20:11:41;;;;;;;98.72;47.40;;;;;;;10.23;94.55;100129.41;3144087;28;20060;-64
2022/12/17 20:13:13;;;;;;;98.28;42.38;;;;;;;10.22;94.44;100130.31;3137838;28;20107;-63
2022/12/17 20:14:44;;;;;;;91.25;43.17;;;;;;;10.20;94.53;100122.59;3144448;28;20062;-65
2022/12/17 20:16:18;;;;;;;98.13;42.85;;;;;;;10.30;94.75;100140.50;3144419;28;20428;-64
2022/12/17 20:17:49;;;;;;;110.10;45.65;;;;;;;10.13;94.32;100121.13;3144172;28;20067;-64
2022/12/17 20:19:23;;;;;;;113.28;53.00;;;;;;;10.25;94.42;100128.44;3144216;28;20051;-67
2022/12/17 20:21:02;;;;;;;103.47;44.33;;;;;;;10.31;94.71;100116.13;3143647;28;20053;-66
2022/12/17 20:22:34;;;;;;;93.15;42.97;;;;;;;10.29;95.04;100095.38;3144516;28;20052;-66